Time;durP1;ratioP1;P1;durP2;ratioP2;P2;SDS_P1;SDS_P2;PMS_P1;PMS_P2;Temp;Humidity;BMP_temperature;BMP_pressure;BME280_temperature;BME280_humidity;BME280_pressure;Samples;Min_cycle;Max_cycle;Signal;HPM_P1;HPM_P2
2023/06/02 00:00:47;;;;;;;9.63;4.20;;;16.70;99.90;;;;;;4988585;28;20246;-76
2023/06/02 00:03:14;;;;;;;5.43;4.30;;;16.70;99.90;;;;;;4989171;28;20180;-75
2023/06/02 00:05:39;;;;;;;6.63;4.30;;;16.70;99.90;;;;;;4988525;28;20168;-76
2023/06/02 00:08:06;;;;;;;9.33;4.33;;;16.50;99.90;;;;;;4988995;28;20523;-77
2023/06/02 00:10:31;;;;;;;4.87;4.30;;;16.50;99.90;;;;;;4991954;28;20228;-76
2023/06/02 00:12:57;;;;;;;7.60;4.00;;;16.40;99.90;;;;;;4988924;28;20227;-77
2023/06/02 00:15:22;;;;;;;9.67;4.80;;;16.30;99.90;;;;;;4991663;28;20184;-77
2023/06/02 00:17:48;;;;;;;6.17;4.13;;;16.20;99.90;;;;;;5004307;28;20581;-76
2023/06/02 00:20:13;;;;;;;7.40;4.87;;;16.10;99.90;;;;;;4994462;28;20192;-76
2023/06/02 00:22:39;;;;;;;7.20;4.83;;;16.00;99.90;;;;;;4988767;28;20201;-76
2023/06/02 00:25:05;;;;;;;5.80;4.23;;;15.90;99.90;;;;;;4993216;28;20273;-77
2023/06/02 00:27:30;;;;;;;10.13;4.60;;;15.90;99.90;;;;;;4987400;28;20187;-76
2023/06/02 00:29:56;;;;;;;6.63;4.63;;;15.80;99.90;;;;;;4991342;28;20199;-76
2023/06/02 00:32:22;;;;;;;6.67;4.20;;;15.60;99.90;;;;;;4988561;28;20279;-76
2023/06/02 00:34:48;;;;;;;7.90;5.10;;;15.60;99.90;;;;;;4994809;28;20172;-76
2023/06/02 00:37:13;;;;;;;6.57;4.83;;;;;;;;;;4987139;28;20169;-76
2023/06/02 00:39:39;;;;;;;6.50;5.00;;;15.40;99.90;;;;;;4988589;28;20188;-76
2023/06/02 00:42:05;;;;;;;8.23;4.97;;;15.30;99.90;;;;;;4988216;28;20692;-76
2023/06/02 00:44:31;;;;;;;9.63;5.70;;;15.30;99.90;;;;;;4986837;28;20723;-75
2023/06/02 00:46:56;;;;;;;6.63;5.40;;;15.20;99.90;;;;;;4989456;28;20164;-75
2023/06/02 00:49:22;;;;;;;5.40;4.63;;;15.10;99.90;;;;;;4991614;28;20277;-77
2023/06/02 00:51:48;;;;;;;7.83;5.67;;;15.10;99.90;;;;;;4991338;28;20224;-78
2023/06/02 00:54:15;;;;;;;6.90;5.03;;;15.00;99.90;;;;;;4990177;28;20552;-78
2023/06/02 00:56:42;;;;;;;9.83;5.30;;;14.90;99.90;;;;;;4991431;28;20161;-76
2023/06/02 00:59:08;;;;;;;6.80;4.90;;;14.70;99.90;;;;;;4990289;28;20189;-74
2023/06/02 01:01:35;;;;;;;7.63;5.30;;;14.80;99.90;;;;;;4991247;28;20239;-77
2023/06/02 01:04:01;;;;;;;6.70;5.60;;;14.80;99.90;;;;;;4991177;28;20184;-77
2023/06/02 01:06:34;;;;;;;6.97;5.10;;;14.50;99.90;;;;;;4991069;28;20184;-78
2023/06/02 01:09:08;;;;;;;8.27;5.57;;;14.50;99.90;;;;;;4984019;28;20220;-76
2023/06/02 01:11:34;;;;;;;8.80;5.17;;;14.50;99.90;;;;;;4991353;28;20244;-78
2023/06/02 01:14:00;;;;;;;9.27;5.33;;;14.40;99.90;;;;;;4989591;28;20264;-77
2023/06/02 01:16:27;;;;;;;8.50;5.20;;;14.30;99.90;;;;;;4990212;28;20207;-76
2023/06/02 01:18:53;;;;;;;7.23;5.70;;;14.30;99.90;;;;;;4991138;28;20218;-78
2023/06/02 01:21:22;;;;;;;8.37;5.87;;;14.30;99.90;;;;;;4991229;28;20250;-77
2023/06/02 01:23:51;;;;;;;7.17;5.47;;;14.10;99.90;;;;;;4989458;28;20177;-76
2023/06/02 01:26:17;;;;;;;6.57;5.00;;;14.10;99.90;;;;;;4989924;28;20258;-76
2023/06/02 01:28:42;;;;;;;6.37;5.00;;;14.10;99.90;;;;;;4990853;28;20220;-75
2023/06/02 01:31:31;;;;;;;8.03;4.83;;;14.00;99.90;;;;;;4991113;28;20685;-76
2023/06/02 01:34:11;;;;;;;7.10;4.97;;;14.10;99.90;;;;;;4983184;28;20181;-77
2023/06/02 01:36:39;;;;;;;6.77;5.10;;;13.90;99.90;;;;;;4991009;28;20194;-76
2023/06/02 01:39:07;;;;;;;7.13;4.63;;;13.80;99.90;;;;;;5003858;28;20547;-75
2023/06/02 01:41:36;;;;;;;9.57;5.57;;;13.90;99.90;;;;;;4993572;28;20211;-76
2023/06/02 01:44:03;;;;;;;7.23;5.30;;;13.90;99.90;;;;;;4990293;28;20185;-76
2023/06/02 01:46:29;;;;;;;9.47;5.00;;;13.90;99.90;;;;;;4995204;28;20184;-76
2023/06/02 01:48:55;;;;;;;8.47;5.27;;;13.70;99.90;;;;;;4991674;28;20252;-76
2023/06/02 01:51:21;;;;;;;5.40;4.80;;;13.70;99.90;;;;;;4990678;28;20200;-76
2023/06/02 01:53:46;;;;;;;7.97;5.27;;;13.80;99.90;;;;;;4990298;28;20173;-76
2023/06/02 01:56:12;;;;;;;5.30;4.50;;;13.70;99.90;;;;;;4990721;28;20229;-77
2023/06/02 01:58:38;;;;;;;6.90;4.33;;;13.70;99.90;;;;;;4989447;28;20208;-76
2023/06/02 02:01:03;;;;;;;7.97;4.97;;;13.60;99.90;;;;;;4990302;28;20623;-77
2023/06/02 02:03:30;;;;;;;9.50;4.87;;;13.60;99.90;;;;;;4989320;28;20192;-76
2023/06/02 02:05:56;;;;;;;7.80;5.00;;;13.50;99.90;;;;;;4990076;28;20168;-76
2023/06/02 02:08:21;;;;;;;6.53;4.53;;;13.50;99.90;;;;;;4990529;28;20225;-76
2023/06/02 02:10:47;;;;;;;5.97;4.73;;;13.40;99.90;;;;;;4990353;28;20223;-76
2023/06/02 02:13:13;;;;;;;6.20;5.20;;;13.40;99.90;;;;;;4989206;28;20169;-76
2023/06/02 02:15:38;;;;;;;6.33;5.00;;;13.30;99.90;;;;;;4990060;28;20625;-76
2023/06/02 02:18:05;;;;;;;5.53;4.97;;;;;;;;;;4990309;28;20211;-77
2023/06/02 02:20:30;;;;;;;6.20;4.90;;;13.20;99.90;;;;;;4990320;28;20169;-76
2023/06/02 02:22:56;;;;;;;8.30;5.87;;;13.20;99.90;;;;;;4989032;28;20187;-76
2023/06/02 02:25:22;;;;;;;6.23;4.67;;;13.20;99.90;;;;;;4989827;28;20267;-77
2023/06/02 02:27:47;;;;;;;6.53;4.60;;;13.20;99.90;;;;;;4990179;28;20677;-76
2023/06/02 02:30:13;;;;;;;5.50;4.57;;;13.20;99.90;;;;;;4988875;28;20288;-75
2023/06/02 02:32:43;;;;;;;7.20;5.20;;;13.00;99.90;;;;;;4990126;28;20279;-75
2023/06/02 02:35:09;;;;;;;6.20;4.60;;;12.90;99.90;;;;;;4990021;28;20506;-77
2023/06/02 02:37:35;;;;;;;6.40;4.63;;;12.90;99.90;;;;;;4988803;28;20264;-76
2023/06/02 02:40:01;;;;;;;5.13;4.63;;;12.90;99.90;;;;;;4988690;28;20177;-76
2023/06/02 02:42:26;;;;;;;5.87;5.27;;;12.80;99.90;;;;;;4989772;28;20251;-76
2023/06/02 02:44:52;;;;;;;7.23;5.07;;;12.90;99.90;;;;;;4989521;28;20176;-75
2023/06/02 02:47:17;;;;;;;5.90;4.60;;;12.90;99.90;;;;;;4988890;28;20259;-75
2023/06/02 02:49:43;;;;;;;8.47;5.10;;;12.80;99.90;;;;;;4988310;28;20251;-77
2023/06/02 02:52:08;;;;;;;5.50;4.57;;;12.80;99.90;;;;;;4997256;28;20677;-77
2023/06/02 02:54:34;;;;;;;6.23;4.73;;;12.80;99.90;;;;;;4989495;28;20185;-76
2023/06/02 02:57:00;;;;;;;6.33;4.87;;;12.80;99.90;;;;;;4989653;28;20177;-77
2023/06/02 02:59:26;;;;;;;5.93;4.53;;;12.70;99.90;;;;;;4989745;28;20180;-76
2023/06/02 03:01:51;;;;;;;7.03;5.07;;;12.80;99.90;;;;;;5020355;23;20243;-66
2023/06/02 03:04:22;;;;;;;5.73;4.83;;;12.70;99.90;;;;;;4989976;28;20184;-66
2023/06/02 03:06:49;;;;;;;6.07;4.77;;;12.80;99.90;;;;;;4981339;28;20683;-66
2023/06/02 03:09:16;;;;;;;6.00;4.27;;;12.70;99.90;;;;;;4970116;28;20232;-66
2023/06/02 03:11:42;;;;;;;5.23;4.53;;;12.60;99.90;;;;;;4970052;28;20169;-66
2023/06/02 03:14:08;;;;;;;8.20;4.90;;;12.60;99.90;;;;;;4970314;28;20644;-65
2023/06/02 03:16:34;;;;;;;5.73;5.00;;;12.70;99.90;;;;;;4960075;28;20201;-66
2023/06/02 03:19:00;;;;;;;7.67;5.10;;;12.70;99.90;;;;;;4966797;28;20184;-65
2023/06/02 03:21:26;;;;;;;7.53;5.03;;;12.50;99.90;;;;;;4961530;28;20187;-67
2023/06/02 03:23:53;;;;;;;5.97;4.73;;;12.60;99.90;;;;;;4968471;28;20582;-66
2023/06/02 03:26:25;;;;;;;6.67;5.03;;;12.40;99.90;;;;;;4969514;28;20232;-67
2023/06/02 03:28:52;;;;;;;7.40;5.40;;;12.60;99.90;;;;;;4976069;28;20188;-67
2023/06/02 03:31:17;;;;;;;5.47;4.87;;;12.50;99.90;;;;;;4977298;28;20641;-66
2023/06/02 03:33:43;;;;;;;6.10;4.63;;;12.50;99.90;;;;;;4976285;28;20237;-66
2023/06/02 03:36:09;;;;;;;6.10;4.97;;;12.60;99.90;;;;;;4970156;28;20268;-65
2023/06/02 03:38:35;;;;;;;7.77;5.23;;;12.50;99.90;;;;;;4969163;28;20189;-66
2023/06/02 03:41:00;;;;;;;9.10;5.70;;;12.40;99.90;;;;;;4970273;28;20177;-65
2023/06/02 03:43:26;;;;;;;6.37;5.20;;;12.30;99.90;;;;;;4969393;28;20177;-66
2023/06/02 03:45:51;;;;;;;5.83;5.23;;;12.30;99.90;;;;;;4969979;28;20197;-66
2023/06/02 03:48:17;;;;;;;6.17;5.13;;;12.40;99.90;;;;;;4970071;28;20637;-66
2023/06/02 03:50:42;;;;;;;9.03;5.40;;;12.40;99.90;;;;;;4970242;28;20178;-65
2023/06/02 03:53:08;;;;;;;5.53;4.97;;;12.40;99.90;;;;;;4969727;28;20166;-66
2023/06/02 03:55:33;;;;;;;6.23;5.00;;;12.40;99.90;;;;;;4969792;28;20276;-65
2023/06/02 03:57:59;;;;;;;5.43;4.93;;;12.40;99.90;;;;;;4969600;28;20184;-67
2023/06/02 04:00:24;;;;;;;6.83;5.63;;;12.30;99.90;;;;;;4970090;28;20311;-66
2023/06/02 04:02:50;;;;;;;6.37;5.53;;;12.30;99.90;;;;;;4969644;28;20653;-67
2023/06/02 04:05:16;;;;;;;6.90;5.43;;;12.20;99.90;;;;;;4969661;28;20200;-66
2023/06/02 04:07:42;;;;;;;8.70;5.60;;;12.30;99.90;;;;;;4970158;28;20239;-67
2023/06/02 04:10:08;;;;;;;5.70;4.80;;;12.20;99.90;;;;;;4950762;28;20236;-67
2023/06/02 04:12:33;;;;;;;7.03;5.37;;;12.30;99.90;;;;;;4963138;28;20218;-67
2023/06/02 04:15:00;;;;;;;5.43;4.93;;;12.30;99.90;;;;;;4963676;28;20177;-65
2023/06/02 04:17:25;;;;;;;6.10;5.00;;;12.40;99.90;;;;;;4963571;28;20252;-66
2023/06/02 04:19:52;;;;;;;7.37;4.87;;;12.40;99.90;;;;;;4970102;28;20693;-66
2023/06/02 04:22:19;;;;;;;5.93;5.27;;;12.40;99.90;;;;;;4984447;28;20207;-66
2023/06/02 04:24:45;;;;;;;6.27;4.87;;;12.40;99.90;;;;;;4972971;28;20197;-68
2023/06/02 04:27:10;;;;;;;6.23;5.17;;;12.50;99.90;;;;;;4972935;28;20217;-65
2023/06/02 04:29:37;;;;;;;7.97;5.47;;;12.50;99.90;;;;;;4973250;28;20677;-65
2023/06/02 04:32:03;;;;;;;6.73;5.30;;;12.50;99.90;;;;;;4969864;28;20193;-66
2023/06/02 04:34:31;;;;;;;8.43;4.97;;;12.50;99.90;;;;;;4977722;28;20185;-67
2023/06/02 04:36:57;;;;;;;6.67;4.90;;;12.60;99.90;;;;;;4972609;28;20216;-67
2023/06/02 04:39:23;;;;;;;7.73;4.97;;;12.50;99.90;;;;;;4973142;28;20641;-67
2023/06/02 04:41:49;;;;;;;9.03;5.00;;;12.60;99.90;;;;;;4973346;28;20224;-66
2023/06/02 04:44:16;;;;;;;6.27;4.50;;;12.60;99.90;;;;;;4972546;28;20668;-66
2023/06/02 04:46:42;;;;;;;8.33;5.37;;;12.80;99.90;;;;;;4972830;28;20201;-66
2023/06/02 04:49:09;;;;;;;5.50;5.00;;;12.90;99.90;;;;;;4972559;28;20234;-67
2023/06/02 04:51:35;;;;;;;7.50;4.43;;;13.70;99.90;;;;;;4972711;28;20170;-67
2023/06/02 04:54:01;;;;;;;5.33;4.80;;;13.90;99.90;;;;;;4972384;28;20250;-67
2023/06/02 04:56:27;;;;;;;6.60;4.57;;;14.30;99.90;;;;;;4972833;28;20695;-67
2023/06/02 04:58:53;;;;;;;6.83;4.47;;;13.90;99.90;;;;;;4973009;28;20311;-65
2023/06/02 05:01:19;;;;;;;6.07;3.93;;;13.80;99.90;;;;;;4972113;28;20647;-66
2023/06/02 05:03:44;;;;;;;5.93;4.40;;;13.90;99.90;;;;;;4959256;28;20198;-66
2023/06/02 05:06:10;;;;;;;6.87;3.87;;;13.70;99.90;;;;;;4971079;28;20205;-65
2023/06/02 05:08:35;;;;;;;6.77;4.53;;;13.60;99.90;;;;;;4970834;28;20189;-65
2023/06/02 05:11:02;;;;;;;7.03;4.70;;;13.40;99.90;;;;;;4970886;28;20189;-66
2023/06/02 05:13:28;;;;;;;9.90;5.30;;;13.30;99.90;;;;;;4972352;28;20187;-65
2023/06/02 05:15:55;;;;;;;7.93;4.40;;;13.30;99.90;;;;;;4970754;28;20220;-66
2023/06/02 05:18:21;;;;;;;9.73;5.43;;;13.40;99.90;;;;;;4970974;28;20184;-65
2023/06/02 05:20:47;;;;;;;7.50;5.03;;;13.40;99.90;;;;;;4972349;28;20557;-66
2023/06/02 05:23:13;;;;;;;8.30;4.53;;;13.40;99.90;;;;;;4972119;28;20264;-67
2023/06/02 05:25:39;;;;;;;9.80;4.60;;;13.50;99.90;;;;;;4971940;28;20208;-66
2023/06/02 05:28:05;;;;;;;8.47;5.03;;;13.40;99.90;;;;;;4972077;28;20197;-66
2023/06/02 05:30:31;;;;;;;6.30;4.90;;;13.50;99.90;;;;;;4972421;28;20209;-66
2023/06/02 05:32:56;;;;;;;8.53;5.23;;;13.50;99.90;;;;;;4970654;28;20278;-66
2023/06/02 05:35:22;;;;;;;8.73;5.57;;;13.60;99.90;;;;;;4971949;28;20193;-65
2023/06/02 05:37:47;;;;;;;7.03;5.33;;;13.60;99.90;;;;;;4972108;28;20668;-66
2023/06/02 05:40:13;;;;;;;6.60;5.30;;;13.70;99.90;;;;;;4972153;28;20196;-67
2023/06/02 05:42:39;;;;;;;7.77;4.73;;;13.70;99.90;;;;;;4972137;28;20633;-65
2023/06/02 05:45:06;;;;;;;7.23;4.73;;;14.00;99.90;;;;;;4971651;28;20185;-65
2023/06/02 05:47:34;;;;;;;6.80;5.13;;;14.40;99.90;;;;;;4972316;28;20181;-67
2023/06/02 05:50:00;;;;;;;8.33;4.80;;;14.30;99.90;;;;;;4970430;28;20212;-65
2023/06/02 05:52:26;;;;;;;5.00;4.50;;;14.30;99.90;;;;;;4972077;28;20226;-66
2023/06/02 05:54:52;;;;;;;7.67;5.13;;;13.90;99.90;;;;;;4970492;28;20177;-66
2023/06/02 05:57:18;;;;;;;5.60;5.10;;;13.80;99.90;;;;;;4971823;28;20254;-66
2023/06/02 05:59:44;;;;;;;5.87;4.70;;;13.80;99.90;;;;;;4971841;28;20178;-68
2023/06/02 06:02:09;;;;;;;6.93;4.90;;;14.00;99.90;;;;;;4971351;28;20185;-66
2023/06/02 06:04:35;;;;;;;6.47;4.73;;;14.00;99.90;;;;;;4971195;28;20208;-66
2023/06/02 06:07:02;;;;;;;6.60;5.03;;;13.90;99.90;;;;;;4971311;28;20219;-66
2023/06/02 06:09:27;;;;;;;7.23;4.90;;;14.10;99.90;;;;;;4970820;28;20259;-67
2023/06/02 06:11:53;;;;;;;5.53;4.50;;;14.20;99.90;;;;;;4970192;28;20590;-66
2023/06/02 06:14:19;;;;;;;5.33;4.53;;;14.20;99.90;;;;;;4970416;28;20169;-66
2023/06/02 06:16:44;;;;;;;5.53;4.80;;;14.10;99.90;;;;;;4970772;28;20197;-65
2023/06/02 06:19:10;;;;;;;5.17;4.30;;;14.20;99.90;;;;;;4981275;28;20500;-66
2023/06/02 06:21:36;;;;;;;7.30;4.77;;;14.40;99.90;;;;;;4986852;28;20184;-66
2023/06/02 06:24:03;;;;;;;6.93;4.67;;;14.30;99.90;;;;;;4971012;28;20193;-66
2023/06/02 06:26:29;;;;;;;6.63;4.80;;;14.50;99.90;;;;;;4971148;28;20657;-66
2023/06/02 06:28:54;;;;;;;7.10;4.83;;;14.30;99.90;;;;;;4971396;28;20202;-67
2023/06/02 06:31:21;;;;;;;6.77;5.27;;;14.30;99.90;;;;;;4964466;28;20186;-65
2023/06/02 06:33:46;;;;;;;4.97;4.53;;;14.50;99.90;;;;;;4969256;28;20599;-67
2023/06/02 06:36:12;;;;;;;6.20;4.60;;;14.50;99.90;;;;;;4968840;28;20193;-68
2023/06/02 06:38:38;;;;;;;6.60;4.77;;;14.60;99.90;;;;;;4963640;28;20231;-66
2023/06/02 06:41:04;;;;;;;8.00;5.03;;;14.20;99.90;;;;;;4970004;28;20719;-66
2023/06/02 06:43:30;;;;;;;5.37;4.67;;;14.30;99.90;;;;;;4961184;28;20569;-67
2023/06/02 06:45:55;;;;;;;5.90;4.73;;;14.40;99.90;;;;;;4966040;28;20209;-68
2023/06/02 06:48:21;;;;;;;6.50;4.57;;;14.50;99.90;;;;;;4968786;28;20641;-66
2023/06/02 06:50:48;;;;;;;10.07;4.80;;;14.70;99.90;;;;;;4969888;28;20677;-66
2023/06/02 06:53:14;;;;;;;7.27;4.97;;;14.50;99.90;;;;;;4969482;28;20173;-67
2023/06/02 06:55:40;;;;;;;9.80;5.20;;;14.60;99.90;;;;;;4966113;28;20197;-66
2023/06/02 06:58:05;;;;;;;5.80;4.97;;;14.50;99.90;;;;;;4973336;28;20187;-65
2023/06/02 07:00:31;;;;;;;6.73;5.20;;;14.60;99.90;;;;;;4967236;28;20188;-66
2023/06/02 07:02:57;;;;;;;8.10;5.20;;;14.50;99.90;;;;;;4963736;28;20193;-67
2023/06/02 07:05:22;;;;;;;5.93;4.70;;;14.80;99.90;;;;;;4965765;28;20204;-65
2023/06/02 07:07:48;;;;;;;5.57;4.70;;;14.80;99.90;;;;;;4966713;28;20178;-65
2023/06/02 07:10:14;;;;;;;10.87;4.57;;;14.90;99.90;;;;;;4966884;28;20197;-66
2023/06/02 07:12:40;;;;;;;9.03;5.13;;;15.20;99.90;;;;;;4970488;28;20181;-66
2023/06/02 07:15:07;;;;;;;6.17;4.67;;;15.00;99.90;;;;;;4969788;28;20528;-65
2023/06/02 07:17:32;;;;;;;9.63;5.17;;;14.90;99.90;;;;;;4969531;28;20633;-66
2023/06/02 07:19:58;;;;;;;7.90;4.80;;;14.90;99.90;;;;;;4967243;28;20184;-66
2023/06/02 07:22:24;;;;;;;5.97;5.27;;;15.10;99.90;;;;;;4966901;28;20649;-66
2023/06/02 07:24:49;;;;;;;7.07;4.80;;;15.20;99.90;;;;;;4969759;28;20269;-66
2023/06/02 07:27:15;;;;;;;9.20;5.40;;;15.00;99.90;;;;;;4964648;28;20673;-67
2023/06/02 07:29:41;;;;;;;5.80;4.50;;;15.00;99.90;;;;;;4966029;28;20220;-65
2023/06/02 07:32:08;;;;;;;7.57;5.07;;;15.30;99.90;;;;;;4964363;28;20182;-65
2023/06/02 07:34:34;;;;;;;7.93;5.50;;;15.20;99.90;;;;;;4968486;28;20276;-65
2023/06/02 07:37:02;;;;;;;7.30;5.07;;;15.10;99.90;;;;;;4966894;28;20228;-65
2023/06/02 07:39:28;;;;;;;6.13;5.10;;;15.10;99.90;;;;;;4964840;28;20177;-66
2023/06/02 07:41:53;;;;;;;6.57;4.90;;;15.20;99.90;;;;;;4969448;28;20238;-67
2023/06/02 07:44:19;;;;;;;6.73;4.90;;;15.30;99.90;;;;;;4969307;28;20652;-66
2023/06/02 07:46:45;;;;;;;6.10;5.00;;;15.10;99.90;;;;;;4968108;28;20645;-65
2023/06/02 07:49:11;;;;;;;6.43;4.47;;;15.40;99.90;;;;;;4970978;28;20673;-66
2023/06/02 07:51:38;;;;;;;8.47;5.20;;;15.60;99.90;;;;;;4955741;28;20220;-66
2023/06/02 07:54:04;;;;;;;8.70;5.30;;;15.50;99.90;;;;;;4965819;28;20207;-65
2023/06/02 07:56:29;;;;;;;5.60;4.87;;;15.70;99.90;;;;;;4969733;28;20205;-65
2023/06/02 07:58:55;;;;;;;6.60;4.53;;;15.40;99.90;;;;;;4972686;28;20264;-64
2023/06/02 08:01:20;;;;;;;8.67;5.13;;;15.50;99.90;;;;;;4971994;28;20181;-65
2023/06/02 08:03:46;;;;;;;7.00;4.70;;;15.60;99.90;;;;;;4971004;28;20199;-65
2023/06/02 08:06:13;;;;;;;6.47;5.50;;;15.60;99.90;;;;;;4977430;28;20200;-66
2023/06/02 08:08:39;;;;;;;8.17;4.93;;;15.70;99.90;;;;;;4972632;28;20181;-66
2023/06/02 08:11:04;;;;;;;6.03;4.70;;;15.90;99.90;;;;;;4972986;28;20193;-66
2023/06/02 08:13:30;;;;;;;5.77;4.90;;;16.20;99.90;;;;;;4972429;28;20185;-65
2023/06/02 08:15:56;;;;;;;5.57;4.90;;;16.10;99.90;;;;;;4972654;28;20284;-66
2023/06/02 08:18:21;;;;;;;5.90;4.90;;;16.30;99.90;;;;;;4971563;28;20255;-64
2023/06/02 08:20:47;;;;;;;7.60;5.20;;;16.20;99.90;;;;;;4972570;28;20192;-65
2023/06/02 08:23:12;;;;;;;6.30;5.00;;;15.90;99.90;;;;;;4972019;28;20186;-65
2023/06/02 08:25:39;;;;;;;6.63;5.10;;;15.80;99.90;;;;;;4972582;28;20287;-65
2023/06/02 08:28:09;;;;;;;7.90;5.07;;;15.90;99.90;;;;;;4972944;28;20169;-65
2023/06/02 08:30:36;;;;;;;6.77;4.83;;;15.90;99.90;;;;;;4972743;28;20201;-65
2023/06/02 08:33:03;;;;;;;5.50;4.93;;;16.20;99.90;;;;;;4971587;28;20526;-66
2023/06/02 08:35:38;;;;;;;6.67;4.50;;;16.30;99.90;;;;;;4972037;28;20194;-67
2023/06/02 08:38:07;;;;;;;9.53;5.50;;;16.30;99.90;;;;;;4972118;28;20180;-66
2023/06/02 08:40:39;;;;;;;7.43;4.60;;;16.10;99.90;;;;;;4972048;28;20169;-67
2023/06/02 08:43:06;;;;;;;6.97;4.70;;;16.30;99.90;;;;;;4972132;28;20169;-67
2023/06/02 08:45:32;;;;;;;7.77;5.10;;;16.50;99.90;;;;;;4972649;28;20198;-65
2023/06/02 08:47:58;;;;;;;6.80;5.07;;;16.50;99.90;;;;;;4970951;28;20243;-66
2023/06/02 08:50:35;;;;;;;4.97;4.47;;;16.40;99.90;;;;;;4971727;28;20211;-66
2023/06/02 08:53:03;;;;;;;5.10;4.63;;;16.40;99.90;;;;;;4972238;28;20177;-67
2023/06/02 08:55:29;;;;;;;8.73;4.90;;;16.40;99.90;;;;;;4971616;28;20194;-67
2023/06/02 08:57:55;;;;;;;5.60;4.67;;;16.50;99.90;;;;;;4970006;28;20189;-68
2023/06/02 09:00:21;;;;;;;6.27;4.80;;;16.60;99.90;;;;;;4971738;28;20660;-66
2023/06/02 09:02:48;;;;;;;5.87;4.73;;;16.40;99.90;;;;;;4988734;22;20326;-69
2023/06/02 09:05:16;;;;;;;5.10;4.53;;;16.50;99.90;;;;;;4988755;28;21660;-70
2023/06/02 09:07:44;;;;;;;5.90;4.87;;;16.70;99.90;;;;;;4965578;28;20193;-70
2023/06/02 09:10:10;;;;;;;8.40;5.00;;;17.20;99.90;;;;;;4969102;28;20538;-69
2023/06/02 09:12:48;;;;;;;4.70;4.30;;;17.20;99.90;;;;;;4973399;28;20173;-69
2023/06/02 09:15:14;;;;;;;7.33;4.60;;;17.30;99.90;;;;;;4964743;28;20193;-71
2023/06/02 09:17:40;;;;;;;4.80;4.33;;;17.00;99.90;;;;;;4954814;28;20176;-72
2023/06/02 09:20:08;;;;;;;5.37;4.43;;;17.20;99.90;;;;;;4973650;28;20169;-69
2023/06/02 09:22:34;;;;;;;6.53;4.40;;;17.10;99.90;;;;;;4968489;28;20587;-69
2023/06/02 09:25:00;;;;;;;8.03;4.73;;;17.40;99.90;;;;;;4963549;28;20178;-68
2023/06/02 09:27:26;;;;;;;5.83;4.13;;;17.20;99.90;;;;;;4971208;28;20177;-70
2023/06/02 09:30:00;;;;;;;4.27;3.87;;;17.50;99.90;;;;;;4960555;28;20732;-68
2023/06/02 09:32:26;;;;;;;4.47;4.07;;;17.50;99.90;;;;;;4968420;28;20698;-69
2023/06/02 09:34:52;;;;;;;4.20;3.83;;;17.40;99.90;;;;;;4970944;28;20181;-70
2023/06/02 09:37:20;;;;;;;5.33;4.33;;;17.60;99.90;;;;;;4967451;28;20212;-69
2023/06/02 09:39:52;;;;;;;5.30;4.73;;;17.70;99.90;;;;;;4968434;28;20179;-69
2023/06/02 09:42:21;;;;;;;4.33;3.90;;;17.60;99.90;;;;;;4970563;28;20180;-69
2023/06/02 09:45:06;;;;;;;6.17;4.60;;;17.60;99.90;;;;;;4971635;28;20664;-69
2023/06/02 09:47:40;;;;;;;6.47;4.30;;;18.10;99.90;;;;;;4963436;28;20252;-69
2023/06/02 09:50:07;;;;;;;7.33;4.23;;;18.20;99.90;;;;;;4969863;28;20498;-71
2023/06/02 09:52:32;;;;;;;3.63;3.33;;;17.80;99.90;;;;;;4971061;28;20672;-69
2023/06/02 09:54:59;;;;;;;6.63;4.13;;;18.10;99.90;;;;;;4971511;28;20178;-69
2023/06/02 09:57:24;;;;;;;7.40;3.93;;;18.20;99.90;;;;;;4963176;28;20207;-67
2023/06/02 09:59:51;;;;;;;8.77;4.00;;;18.80;99.90;;;;;;4971433;28;20222;-67
2023/06/02 10:02:17;;;;;;;4.37;3.83;;;18.80;99.90;;;;;;4971844;28;20709;-68
2023/06/02 10:04:42;;;;;;;10.30;4.40;;;18.80;99.90;;;;;;4961913;28;20280;-67
2023/06/02 10:07:27;;;;;;;4.07;3.57;;;18.60;99.90;;;;;;4965737;28;20215;-68
2023/06/02 10:10:02;;;;;;;4.17;3.77;;;18.50;99.90;;;;;;4969719;28;20221;-66
2023/06/02 10:12:49;;;;;;;5.50;3.20;;;18.50;99.90;;;;;;4971552;28;20178;-67
2023/06/02 10:15:31;;;;;;;4.40;3.80;;;18.70;99.90;;;;;;4960101;28;20200;-67
2023/06/02 10:18:34;;;;;;;4.20;3.80;;;19.20;99.90;;;;;;4963927;28;20212;-67
2023/06/02 10:21:15;;;;;;;3.10;2.90;;;18.90;99.90;;;;;;4971598;28;20184;-68
2023/06/02 10:24:14;;;;;;;5.87;4.03;;;19.10;99.90;;;;;;4971605;28;20177;-68
2023/06/02 10:26:59;;;;;;;4.43;3.37;;;18.70;99.90;;;;;;4970020;28;20675;-69
2023/06/02 10:29:28;;;;;;;4.70;3.90;;;18.80;99.90;;;;;;4970061;28;20474;-68
2023/06/02 10:31:53;;;;;;;5.03;3.77;;;19.40;99.90;;;;;;4971507;28;20172;-68
2023/06/02 10:34:34;;;;;;;3.93;3.33;;;19.30;99.90;;;;;;4972086;28;20184;-69
2023/06/02 10:37:00;;;;;;;4.67;3.67;;;19.30;99.90;;;;;;4969288;28;20275;-68
2023/06/02 10:39:37;;;;;;;4.43;3.33;;;19.10;99.90;;;;;;4972279;28;20261;-67
2023/06/02 10:42:13;;;;;;;4.80;3.63;;;19.30;99.90;;;;;;4971492;28;20184;-68
2023/06/02 10:44:39;;;;;;;5.87;3.90;;;19.60;99.90;;;;;;4971163;28;20184;-68
2023/06/02 10:47:20;;;;;;;4.77;3.43;;;19.70;99.90;;;;;;4971222;28;20556;-68
2023/06/02 10:49:59;;;;;;;4.07;3.23;;;19.80;99.90;;;;;;4971076;28;20641;-68
2023/06/02 10:52:30;;;;;;;3.93;3.30;;;19.60;99.90;;;;;;4960270;28;20218;-68
2023/06/02 10:55:07;;;;;;;3.57;3.27;;;19.60;99.90;;;;;;4970702;28;20658;-68
2023/06/02 10:57:54;;;;;;;6.07;3.10;;;19.70;99.90;;;;;;4969375;28;20541;-68
2023/06/02 11:00:40;;;;;;;6.32;3.38;;;20.00;99.90;;;;;;4964052;28;20180;-68
2023/06/02 11:03:15;;;;;;;5.87;4.13;;;19.90;99.90;;;;;;4959824;28;20177;-68
2023/06/02 11:05:41;;;;;;;4.13;3.28;;;19.90;99.90;;;;;;4970814;28;20196;-68
2023/06/02 11:08:14;;;;;;;4.78;2.88;;;20.30;99.90;;;;;;4969842;28;20235;-68
2023/06/02 11:11:02;;;;;;;6.82;3.28;;;20.40;99.90;;;;;;4969315;28;20197;-69
2023/06/02 11:13:28;;;;;;;5.95;3.50;;;20.50;99.90;;;;;;4971026;28;20170;-67
2023/06/02 11:15:58;;;;;;;4.60;3.25;;;20.40;99.90;;;;;;4970896;28;20201;-66
2023/06/02 11:18:25;;;;;;;6.13;3.60;;;20.10;99.90;;;;;;4971320;28;20201;-69
2023/06/02 11:20:53;;;;;;;6.53;3.13;;;20.20;99.90;;;;;;4971015;28;20177;-68
2023/06/02 11:23:19;;;;;;;5.88;3.40;;;20.20;99.90;;;;;;4970906;28;20613;-67
2023/06/02 11:25:50;;;;;;;4.03;3.30;;;20.00;99.90;;;;;;4967736;28;20206;-66
2023/06/02 11:28:20;;;;;;;6.22;3.15;;;20.50;99.90;;;;;;4971395;28;20629;-68
2023/06/02 11:30:46;;;;;;;5.30;3.45;;;20.80;99.90;;;;;;4969869;28;20692;-67
2023/06/02 11:33:12;;;;;;;5.38;3.30;;;20.50;99.90;;;;;;4971689;28;20268;-68
2023/06/02 11:35:37;;;;;;;3.92;2.53;;;20.50;99.90;;;;;;4970597;28;20256;-68
2023/06/02 11:38:06;;;;;;;3.58;3.25;;;20.80;99.90;;;;;;4970939;28;20173;-68
2023/06/02 11:40:33;;;;;;;3.58;3.15;;;20.80;99.90;;;;;;4971065;28;20178;-68
2023/06/02 11:42:59;;;;;;;4.32;3.20;;;20.90;99.90;;;;;;4970861;28;20212;-68
2023/06/02 11:45:27;;;;;;;3.45;2.92;;;20.60;99.90;;;;;;4969601;28;20229;-68
2023/06/02 11:48:05;;;;;;;3.00;2.67;;;20.50;99.90;;;;;;4970661;28;20188;-69
2023/06/02 11:50:31;;;;;;;3.03;2.72;;;20.80;99.90;;;;;;4960429;28;20204;-68
2023/06/02 11:52:58;;;;;;;5.75;3.00;;;20.90;99.90;;;;;;4970418;28;20169;-68
2023/06/02 11:55:28;;;;;;;3.40;3.10;;;21.00;99.90;;;;;;4970341;28;20254;-66
2023/06/02 11:58:19;;;;;;;5.90;3.00;;;20.80;99.90;;;;;;4970544;28;20173;-68
2023/06/02 12:00:44;;;;;;;3.88;2.97;;;20.80;99.90;;;;;;4970878;28;20532;-68
2023/06/02 12:03:12;;;;;;;3.30;3.00;;;20.80;99.90;;;;;;4954908;28;20201;-68
2023/06/02 12:05:42;;;;;;;4.00;2.72;;;20.70;99.90;;;;;;4970322;28;20212;-68
2023/06/02 12:08:14;;;;;;;3.67;2.95;;;21.00;99.90;;;;;;4969409;28;20192;-68
2023/06/02 12:10:40;;;;;;;4.65;2.70;;;20.80;99.90;;;;;;4969057;28;20209;-68
2023/06/02 12:13:06;;;;;;;5.22;3.05;;;21.00;99.90;;;;;;4970420;28;20180;-67
2023/06/02 12:15:35;;;;;;;3.08;2.72;;;21.30;99.90;;;;;;4962198;28;20202;-68
2023/06/02 12:18:06;;;;;;;3.85;2.90;;;21.60;99.90;;;;;;4970853;28;20256;-66
2023/06/02 12:20:36;;;;;;;3.00;2.33;;;21.20;99.10;;;;;;4970388;28;20227;-68
2023/06/02 12:23:01;;;;;;;3.00;2.53;;;21.30;99.90;;;;;;4970354;28;20169;-68
2023/06/02 12:25:27;;;;;;;2.67;2.30;;;21.50;99.70;;;;;;4960822;28;20251;-69
2023/06/02 12:27:52;;;;;;;3.03;2.47;;;22.00;98.80;;;;;;4968946;28;20266;-68
2023/06/02 12:30:18;;;;;;;2.92;2.45;;;21.90;99.00;;;;;;4969251;28;20197;-67
2023/06/02 12:32:43;;;;;;;4.45;2.50;;;21.50;98.30;;;;;;4970329;28;20649;-68
2023/06/02 12:35:09;;;;;;;5.05;2.70;;;21.40;98.50;;;;;;4969536;28;20183;-67
2023/06/02 12:37:36;;;;;;;5.18;3.00;;;21.40;98.70;;;;;;4970530;28;20173;-65
2023/06/02 12:40:02;;;;;;;5.82;2.60;;;21.70;97.20;;;;;;4964480;28;20203;-68
2023/06/02 12:42:28;;;;;;;3.15;2.80;;;21.20;97.30;;;;;;4969407;28;20215;-68
2023/06/02 12:44:54;;;;;;;3.83;2.45;;;21.50;97.70;;;;;;4972972;28;20219;-68
2023/06/02 12:47:21;;;;;;;2.50;2.30;;;21.80;95.60;;;;;;4972049;28;20265;-66
2023/06/02 12:49:47;;;;;;;3.30;2.30;;;21.80;95.20;;;;;;4973302;28;20205;-68